sensor_id;sensor_type;location;lat;lon;timestamp;pressure;altitude;pressure_sealevel;temperature
19644;BMP180;9970;-36.854;174.870;2022-07-06T00:00:25;101625.00;;;15.00
19644;BMP180;9970;-36.854;174.870;2022-07-06T00:03:02;101622.00;;;15.00
19644;BMP180;9970;-36.854;174.870;2022-07-06T00:05:39;101600.00;;;15.00
19644;BMP180;9970;-36.854;174.870;2022-07-06T00:08:12;101613.00;;;15.00
19644;BMP180;9970;-36.854;174.870;2022-07-06T00:10:45;101616.00;;;15.00
19644;BMP180;9970;-36.854;174.870;2022-07-06T00:13:18;101612.00;;;15.00
19644;BMP180;9970;-36.854;174.870;2022-07-06T00:15:51;101612.00;;;15.00
19644;BMP180;9970;-36.854;174.870;2022-07-06T00:18:24;101594.00;;;15.00
19644;BMP180;9970;-36.854;174.870;2022-07-06T00:20:59;101590.00;;;15.00
19644;BMP180;9970;-36.854;174.870;2022-07-06T00:23:32;101593.00;;;15.00
19644;BMP180;9970;-36.854;174.870;2022-07-06T00:26:04;101615.00;;;15.00
19644;BMP180;9970;-36.854;174.870;2022-07-06T00:28:37;101618.00;;;15.00
19644;BMP180;9970;-36.854;174.870;2022-07-06T00:31:10;101613.00;;;15.00
19644;BMP180;9970;-36.854;174.870;2022-07-06T00:33:43;101618.00;;;15.10
19644;BMP180;9970;-36.854;174.870;2022-07-06T00:36:16;101608.00;;;15.00
19644;BMP180;9970;-36.854;174.870;2022-07-06T00:38:49;101603.00;;;15.00
19644;BMP180;9970;-36.854;174.870;2022-07-06T00:41:22;101623.00;;;15.00
19644;BMP180;9970;-36.854;174.870;2022-07-06T00:43:56;101626.00;;;15.00
19644;BMP180;9970;-36.854;174.870;2022-07-06T00:46:32;101617.00;;;15.00
19644;BMP180;9970;-36.854;174.870;2022-07-06T00:49:05;101605.00;;;15.00
19644;BMP180;9970;-36.854;174.870;2022-07-06T00:51:40;101597.00;;;15.00
19644;BMP180;9970;-36.854;174.870;2022-07-06T00:54:17;101612.00;;;15.10
19644;BMP180;9970;-36.854;174.870;2022-07-06T00:56:50;101602.00;;;15.10
19644;BMP180;9970;-36.854;174.870;2022-07-06T00:59:24;101598.00;;;15.10
19644;BMP180;9970;-36.854;174.870;2022-07-06T01:01:57;101587.00;;;15.10
19644;BMP180;9970;-36.854;174.870;2022-07-06T01:04:30;101593.00;;;15.10
19644;BMP180;9970;-36.854;174.870;2022-07-06T01:07:03;101597.00;;;15.10
19644;BMP180;9970;-36.854;174.870;2022-07-06T01:09:36;101596.00;;;15.00
19644;BMP180;9970;-36.854;174.870;2022-07-06T01:12:09;101596.00;;;15.00
19644;BMP180;9970;-36.854;174.870;2022-07-06T01:14:41;101591.00;;;15.00
19644;BMP180;9970;-36.854;174.870;2022-07-06T01:17:15;101598.00;;;15.00
19644;BMP180;9970;-36.854;174.870;2022-07-06T01:19:48;101598.00;;;15.00
19644;BMP180;9970;-36.854;174.870;2022-07-06T01:22:21;101603.00;;;15.00
19644;BMP180;9970;-36.854;174.870;2022-07-06T01:24:54;101604.00;;;15.00
19644;BMP180;9970;-36.854;174.870;2022-07-06T01:27:26;101607.00;;;15.00
19644;BMP180;9970;-36.854;174.870;2022-07-06T01:29:59;101619.00;;;15.00
19644;BMP180;9970;-36.854;174.870;2022-07-06T01:32:37;101619.00;;;15.00
19644;BMP180;9970;-36.854;174.870;2022-07-06T01:35:13;101618.00;;;15.00
19644;BMP180;9970;-36.854;174.870;2022-07-06T01:37:46;101621.00;;;15.00
19644;BMP180;9970;-36.854;174.870;2022-07-06T01:40:19;101626.00;;;15.00
19644;BMP180;9970;-36.854;174.870;2022-07-06T01:42:54;101640.00;;;14.90
19644;BMP180;9970;-36.854;174.870;2022-07-06T01:45:31;101634.00;;;15.00
19644;BMP180;9970;-36.854;174.870;2022-07-06T01:48:08;101637.00;;;14.90
19644;BMP180;9970;-36.854;174.870;2022-07-06T01:50:41;101624.00;;;14.90
19644;BMP180;9970;-36.854;174.870;2022-07-06T01:53:13;101637.00;;;14.90
19644;BMP180;9970;-36.854;174.870;2022-07-06T01:55:46;101631.00;;;14.90
19644;BMP180;9970;-36.854;174.870;2022-07-06T01:58:19;101628.00;;;14.90
19644;BMP180;9970;-36.854;174.870;2022-07-06T02:00:55;101631.00;;;14.90
19644;BMP180;9970;-36.854;174.870;2022-07-06T02:03:27;101627.00;;;14.90
19644;BMP180;9970;-36.854;174.870;2022-07-06T02:06:08;101645.00;;;14.90
19644;BMP180;9970;-36.854;174.870;2022-07-06T02:08:53;101641.00;;;14.90
19644;BMP180;9970;-36.854;174.870;2022-07-06T02:11:26;101643.00;;;14.90
19644;BMP180;9970;-36.854;174.870;2022-07-06T02:13:59;101639.00;;;14.90
19644;BMP180;9970;-36.854;174.870;2022-07-06T02:16:32;101647.00;;;14.90
19644;BMP180;9970;-36.854;174.870;2022-07-06T02:19:12;101638.00;;;14.90
19644;BMP180;9970;-36.854;174.870;2022-07-06T02:21:47;101631.00;;;14.90
19644;BMP180;9970;-36.854;174.870;2022-07-06T02:24:26;101630.00;;;14.90
19644;BMP180;9970;-36.854;174.870;2022-07-06T02:26:59;101620.00;;;14.90
19644;BMP180;9970;-36.854;174.870;2022-07-06T02:29:34;101620.00;;;14.90
19644;BMP180;9970;-36.854;174.870;2022-07-06T02:32:09;101619.00;;;14.90
19644;BMP180;9970;-36.854;174.870;2022-07-06T02:34:42;101629.00;;;14.90
19644;BMP180;9970;-36.854;174.870;2022-07-06T02:37:15;101624.00;;;14.90
19644;BMP180;9970;-36.854;174.870;2022-07-06T02:39:48;101622.00;;;14.90
19644;BMP180;9970;-36.854;174.870;2022-07-06T02:42:21;101639.00;;;14.90
19644;BMP180;9970;-36.854;174.870;2022-07-06T02:44:55;101646.00;;;14.90
19644;BMP180;9970;-36.854;174.870;2022-07-06T02:47:28;101654.00;;;14.90
19644;BMP180;9970;-36.854;174.870;2022-07-06T02:50:01;101654.00;;;14.90
19644;BMP180;9970;-36.854;174.870;2022-07-06T02:52:34;101655.00;;;14.90
19644;BMP180;9970;-36.854;174.870;2022-07-06T02:55:08;101658.00;;;14.90
19644;BMP180;9970;-36.854;174.870;2022-07-06T02:57:41;101655.00;;;14.90
19644;BMP180;9970;-36.854;174.870;2022-07-06T03:00:14;101654.00;;;14.90
19644;BMP180;9970;-36.854;174.870;2022-07-06T03:02:47;101646.00;;;14.90
19644;BMP180;9970;-36.854;174.870;2022-07-06T03:05:21;101650.00;;;14.90
19644;BMP180;9970;-36.854;174.870;2022-07-06T03:07:54;101650.00;;;14.90
19644;BMP180;9970;-36.854;174.870;2022-07-06T03:10:26;101640.00;;;14.90
19644;BMP180;9970;-36.854;174.870;2022-07-06T03:13:00;101637.00;;;14.90
19644;BMP180;9970;-36.854;174.870;2022-07-06T03:15:33;101644.00;;;14.90
19644;BMP180;9970;-36.854;174.870;2022-07-06T03:18:06;101659.00;;;14.90
19644;BMP180;9970;-36.854;174.870;2022-07-06T03:20:39;101652.00;;;14.90
19644;BMP180;9970;-36.854;174.870;2022-07-06T03:23:12;101657.00;;;14.90
19644;BMP180;9970;-36.854;174.870;2022-07-06T03:25:47;101653.00;;;14.90
19644;BMP180;9970;-36.854;174.870;2022-07-06T03:28:21;101657.00;;;14.90
19644;BMP180;9970;-36.854;174.870;2022-07-06T03:30:54;101657.00;;;14.90
19644;BMP180;9970;-36.854;174.870;2022-07-06T03:33:27;101673.00;;;14.90
19644;BMP180;9970;-36.854;174.870;2022-07-06T03:36:00;101656.00;;;14.90
19644;BMP180;9970;-36.854;174.870;2022-07-06T03:38:35;101666.00;;;14.90
19644;BMP180;9970;-36.854;174.870;2022-07-06T03:41:08;101678.00;;;14.90
19644;BMP180;9970;-36.854;174.870;2022-07-06T03:43:41;101676.00;;;14.90
19644;BMP180;9970;-36.854;174.870;2022-07-06T03:46:14;101678.00;;;14.90
19644;BMP180;9970;-36.854;174.870;2022-07-06T03:48:47;101681.00;;;14.90
19644;BMP180;9970;-36.854;174.870;2022-07-06T03:51:20;101682.00;;;14.90
19644;BMP180;9970;-36.854;174.870;2022-07-06T03:53:53;101679.00;;;14.90
19644;BMP180;9970;-36.854;174.870;2022-07-06T03:56:26;101682.00;;;14.90
19644;BMP180;9970;-36.854;174.870;2022-07-06T03:59:07;101685.00;;;14.90
19644;BMP180;9970;-36.854;174.870;2022-07-06T04:01:37;101692.00;;;14.90
19644;BMP180;9970;-36.854;174.870;2022-07-06T04:04:11;101702.00;;;14.90
19644;BMP180;9970;-36.854;174.870;2022-07-06T04:06:49;101702.00;;;14.90
19644;BMP180;9970;-36.854;174.870;2022-07-06T04:09:18;101711.00;;;14.90
19644;BMP180;9970;-36.854;174.870;2022-07-06T04:11:51;101712.00;;;14.90
19644;BMP180;9970;-36.854;174.870;2022-07-06T04:14:24;101722.00;;;14.90
19644;BMP180;9970;-36.854;174.870;2022-07-06T04:16:58;101721.00;;;14.90
19644;BMP180;9970;-36.854;174.870;2022-07-06T04:19:32;101718.00;;;14.90
19644;BMP180;9970;-36.854;174.870;2022-07-06T04:22:05;101721.00;;;14.90
19644;BMP180;9970;-36.854;174.870;2022-07-06T04:24:38;101729.00;;;15.00
19644;BMP180;9970;-36.854;174.870;2022-07-06T04:27:11;101743.00;;;15.00
19644;BMP180;9970;-36.854;174.870;2022-07-06T04:29:44;101743.00;;;15.00
19644;BMP180;9970;-36.854;174.870;2022-07-06T04:32:17;101737.00;;;15.00
19644;BMP180;9970;-36.854;174.870;2022-07-06T04:34:51;101740.00;;;15.00
19644;BMP180;9970;-36.854;174.870;2022-07-06T04:37:24;101746.00;;;15.00
19644;BMP180;9970;-36.854;174.870;2022-07-06T04:39:58;101746.00;;;15.00
19644;BMP180;9970;-36.854;174.870;2022-07-06T04:42:42;101748.00;;;15.00
19644;BMP180;9970;-36.854;174.870;2022-07-06T04:45:15;101749.00;;;15.00
19644;BMP180;9970;-36.854;174.870;2022-07-06T04:47:48;101759.00;;;15.00
19644;BMP180;9970;-36.854;174.870;2022-07-06T04:50:21;101771.00;;;15.00
19644;BMP180;9970;-36.854;174.870;2022-07-06T04:52:54;101781.00;;;15.00
19644;BMP180;9970;-36.854;174.870;2022-07-06T04:55:27;101774.00;;;15.00
19644;BMP180;9970;-36.854;174.870;2022-07-06T04:58:00;101782.00;;;15.10
19644;BMP180;9970;-36.854;174.870;2022-07-06T05:00:33;101791.00;;;15.10
19644;BMP180;9970;-36.854;174.870;2022-07-06T05:03:06;101787.00;;;15.10
19644;BMP180;9970;-36.854;174.870;2022-07-06T05:05:39;101789.00;;;15.10
19644;BMP180;9970;-36.854;174.870;2022-07-06T05:08:11;101792.00;;;15.10
19644;BMP180;9970;-36.854;174.870;2022-07-06T05:10:44;101794.00;;;15.10
19644;BMP180;9970;-36.854;174.870;2022-07-06T05:13:17;101791.00;;;15.10
19644;BMP180;9970;-36.854;174.870;2022-07-06T05:15:50;101790.00;;;15.10
19644;BMP180;9970;-36.854;174.870;2022-07-06T05:18:24;101805.00;;;15.10
19644;BMP180;9970;-36.854;174.870;2022-07-06T05:20:57;101820.00;;;15.10
19644;BMP180;9970;-36.854;174.870;2022-07-06T05:23:30;101827.00;;;15.10
19644;BMP180;9970;-36.854;174.870;2022-07-06T05:26:03;101833.00;;;15.10
19644;BMP180;9970;-36.854;174.870;2022-07-06T05:28:36;101840.00;;;15.10
19644;BMP180;9970;-36.854;174.870;2022-07-06T05:31:08;101850.00;;;15.10
19644;BMP180;9970;-36.854;174.870;2022-07-06T05:33:41;101852.00;;;15.00
19644;BMP180;9970;-36.854;174.870;2022-07-06T05:36:14;101859.00;;;15.10
19644;BMP180;9970;-36.854;174.870;2022-07-06T05:38:47;101870.00;;;15.00
19644;BMP180;9970;-36.854;174.870;2022-07-06T05:41:19;101870.00;;;15.00
19644;BMP180;9970;-36.854;174.870;2022-07-06T05:43:54;101875.00;;;15.00
19644;BMP180;9970;-36.854;174.870;2022-07-06T05:46:26;101885.00;;;15.00
19644;BMP180;9970;-36.854;174.870;2022-07-06T05:48:59;101893.00;;;15.00
19644;BMP180;9970;-36.854;174.870;2022-07-06T05:51:50;101903.00;;;15.00
19644;BMP180;9970;-36.854;174.870;2022-07-06T05:54:27;101907.00;;;15.00
19644;BMP180;9970;-36.854;174.870;2022-07-06T05:57:00;101909.00;;;14.90
19644;BMP180;9970;-36.854;174.870;2022-07-06T05:59:33;101901.00;;;14.90
19644;BMP180;9970;-36.854;174.870;2022-07-06T06:02:06;101900.00;;;14.90
19644;BMP180;9970;-36.854;174.870;2022-07-06T06:04:39;101903.00;;;14.90
19644;BMP180;9970;-36.854;174.870;2022-07-06T06:07:11;101915.00;;;14.90
19644;BMP180;9970;-36.854;174.870;2022-07-06T06:09:44;101912.00;;;14.90
19644;BMP180;9970;-36.854;174.870;2022-07-06T06:12:17;101910.00;;;14.90
19644;BMP180;9970;-36.854;174.870;2022-07-06T06:14:50;101918.00;;;14.80
19644;BMP180;9970;-36.854;174.870;2022-07-06T06:17:23;101915.00;;;14.80
19644;BMP180;9970;-36.854;174.870;2022-07-06T06:19:56;101915.00;;;14.80
19644;BMP180;9970;-36.854;174.870;2022-07-06T06:22:29;101915.00;;;14.80
19644;BMP180;9970;-36.854;174.870;2022-07-06T06:25:03;101916.00;;;14.80
19644;BMP180;9970;-36.854;174.870;2022-07-06T06:27:36;101905.00;;;14.80
19644;BMP180;9970;-36.854;174.870;2022-07-06T06:30:10;101906.00;;;14.70
19644;BMP180;9970;-36.854;174.870;2022-07-06T06:32:43;101911.00;;;14.70
19644;BMP180;9970;-36.854;174.870;2022-07-06T06:35:16;101921.00;;;14.70
19644;BMP180;9970;-36.854;174.870;2022-07-06T06:37:49;101924.00;;;14.70
19644;BMP180;9970;-36.854;174.870;2022-07-06T06:40:22;101929.00;;;14.70
19644;BMP180;9970;-36.854;174.870;2022-07-06T06:42:55;101931.00;;;14.60
19644;BMP180;9970;-36.854;174.870;2022-07-06T06:45:28;101943.00;;;14.60
19644;BMP180;9970;-36.854;174.870;2022-07-06T06:48:00;101939.00;;;14.60
19644;BMP180;9970;-36.854;174.870;2022-07-06T06:50:33;101946.00;;;14.60
19644;BMP180;9970;-36.854;174.870;2022-07-06T06:53:06;101956.00;;;14.50
19644;BMP180;9970;-36.854;174.870;2022-07-06T06:55:39;101954.00;;;14.50
19644;BMP180;9970;-36.854;174.870;2022-07-06T06:58:12;101941.00;;;14.50
19644;BMP180;9970;-36.854;174.870;2022-07-06T07:00:45;101953.00;;;14.50
19644;BMP180;9970;-36.854;174.870;2022-07-06T07:03:18;101963.00;;;14.50
19644;BMP180;9970;-36.854;174.870;2022-07-06T07:05:51;101972.00;;;14.50
19644;BMP180;9970;-36.854;174.870;2022-07-06T07:08:23;101969.00;;;14.40
19644;BMP180;9970;-36.854;174.870;2022-07-06T07:10:57;101971.00;;;14.40
19644;BMP180;9970;-36.854;174.870;2022-07-06T07:13:29;101975.00;;;14.40
19644;BMP180;9970;-36.854;174.870;2022-07-06T07:16:05;101971.00;;;14.40
19644;BMP180;9970;-36.854;174.870;2022-07-06T07:18:38;101989.00;;;14.40
19644;BMP180;9970;-36.854;174.870;2022-07-06T07:21:11;101986.00;;;14.30
19644;BMP180;9970;-36.854;174.870;2022-07-06T07:23:46;101991.00;;;14.30
19644;BMP180;9970;-36.854;174.870;2022-07-06T07:26:20;101996.00;;;14.30
19644;BMP180;9970;-36.854;174.870;2022-07-06T07:28:53;101985.00;;;14.20
19644;BMP180;9970;-36.854;174.870;2022-07-06T07:31:30;101988.00;;;14.20
19644;BMP180;9970;-36.854;174.870;2022-07-06T07:34:03;101994.00;;;14.20
19644;BMP180;9970;-36.854;174.870;2022-07-06T07:36:36;102002.00;;;14.20
19644;BMP180;9970;-36.854;174.870;2022-07-06T07:39:09;102012.00;;;14.20
19644;BMP180;9970;-36.854;174.870;2022-07-06T07:41:42;102014.00;;;14.10
19644;BMP180;9970;-36.854;174.870;2022-07-06T07:44:15;102020.00;;;14.10
19644;BMP180;9970;-36.854;174.870;2022-07-06T07:46:47;102020.00;;;14.10
19644;BMP180;9970;-36.854;174.870;2022-07-06T07:49:21;102023.00;;;14.10
19644;BMP180;9970;-36.854;174.870;2022-07-06T07:51:54;102027.00;;;14.00
19644;BMP180;9970;-36.854;174.870;2022-07-06T07:54:27;102038.00;;;14.00
19644;BMP180;9970;-36.854;174.870;2022-07-06T07:57:00;102032.00;;;14.00
19644;BMP180;9970;-36.854;174.870;2022-07-06T07:59:32;102040.00;;;14.00
19644;BMP180;9970;-36.854;174.870;2022-07-06T08:02:06;102025.00;;;13.90
19644;BMP180;9970;-36.854;174.870;2022-07-06T08:04:39;102033.00;;;13.90
19644;BMP180;9970;-36.854;174.870;2022-07-06T08:07:11;102026.00;;;13.90
19644;BMP180;9970;-36.854;174.870;2022-07-06T08:09:45;102030.00;;;13.90
19644;BMP180;9970;-36.854;174.870;2022-07-06T08:12:17;102030.00;;;13.90
19644;BMP180;9970;-36.854;174.870;2022-07-06T08:14:51;102028.00;;;13.80
19644;BMP180;9970;-36.854;174.870;2022-07-06T08:17:24;102031.00;;;13.80
19644;BMP180;9970;-36.854;174.870;2022-07-06T08:19:57;102028.00;;;13.80
19644;BMP180;9970;-36.854;174.870;2022-07-06T08:22:30;102019.00;;;13.80
19644;BMP180;9970;-36.854;174.870;2022-07-06T08:25:03;102021.00;;;13.70
19644;BMP180;9970;-36.854;174.870;2022-07-06T08:27:36;102029.00;;;13.70
19644;BMP180;9970;-36.854;174.870;2022-07-06T08:30:10;102031.00;;;13.70
19644;BMP180;9970;-36.854;174.870;2022-07-06T08:32:44;102043.00;;;13.70
19644;BMP180;9970;-36.854;174.870;2022-07-06T08:35:18;102054.00;;;13.70
19644;BMP180;9970;-36.854;174.870;2022-07-06T08:37:51;102049.00;;;13.70
19644;BMP180;9970;-36.854;174.870;2022-07-06T08:40:31;102050.00;;;13.70
19644;BMP180;9970;-36.854;174.870;2022-07-06T08:43:06;102054.00;;;13.60
19644;BMP180;9970;-36.854;174.870;2022-07-06T08:45:40;102053.00;;;13.60
19644;BMP180;9970;-36.854;174.870;2022-07-06T08:48:15;102050.00;;;13.60
19644;BMP180;9970;-36.854;174.870;2022-07-06T08:50:48;102055.00;;;13.60
19644;BMP180;9970;-36.854;174.870;2022-07-06T08:53:21;102056.00;;;13.60
19644;BMP180;9970;-36.854;174.870;2022-07-06T08:55:56;102059.00;;;13.60
19644;BMP180;9970;-36.854;174.870;2022-07-06T08:58:29;102067.00;;;13.60
19644;BMP180;9970;-36.854;174.870;2022-07-06T09:01:06;102059.00;;;13.60
19644;BMP180;9970;-36.854;174.870;2022-07-06T09:03:43;102055.00;;;13.60
19644;BMP180;9970;-36.854;174.870;2022-07-06T09:06:20;102053.00;;;13.60
19644;BMP180;9970;-36.854;174.870;2022-07-06T09:08:54;102059.00;;;13.60
19644;BMP180;9970;-36.854;174.870;2022-07-06T09:11:27;102065.00;;;13.50
19644;BMP180;9970;-36.854;174.870;2022-07-06T09:14:01;102066.00;;;13.50
19644;BMP180;9970;-36.854;174.870;2022-07-06T09:16:34;102070.00;;;13.50
19644;BMP180;9970;-36.854;174.870;2022-07-06T09:19:10;102067.00;;;13.50
19644;BMP180;9970;-36.854;174.870;2022-07-06T09:21:42;102074.00;;;13.50
19644;BMP180;9970;-36.854;174.870;2022-07-06T09:24:15;102063.00;;;13.50
19644;BMP180;9970;-36.854;174.870;2022-07-06T09:26:51;102060.00;;;13.50
19644;BMP180;9970;-36.854;174.870;2022-07-06T09:29:31;102060.00;;;13.50
19644;BMP180;9970;-36.854;174.870;2022-07-06T09:32:05;102073.00;;;13.50
19644;BMP180;9970;-36.854;174.870;2022-07-06T09:34:47;102065.00;;;13.50
19644;BMP180;9970;-36.854;174.870;2022-07-06T09:37:20;102059.00;;;13.50
19644;BMP180;9970;-36.854;174.870;2022-07-06T09:39:55;102066.00;;;13.50
19644;BMP180;9970;-36.854;174.870;2022-07-06T09:42:29;102060.00;;;13.50
19644;BMP180;9970;-36.854;174.870;2022-07-06T09:45:04;102059.00;;;13.50
19644;BMP180;9970;-36.854;174.870;2022-07-06T09:47:37;102069.00;;;13.50
19644;BMP180;9970;-36.854;174.870;2022-07-06T09:50:15;102063.00;;;13.50
19644;BMP180;9970;-36.854;174.870;2022-07-06T09:52:55;102072.00;;;13.50
19644;BMP180;9970;-36.854;174.870;2022-07-06T09:55:28;102072.00;;;13.60
19644;BMP180;9970;-36.854;174.870;2022-07-06T09:58:03;102072.00;;;13.60
19644;BMP180;9970;-36.854;174.870;2022-07-06T10:00:36;102067.00;;;13.60
19644;BMP180;9970;-36.854;174.870;2022-07-06T10:03:11;102069.00;;;13.60
19644;BMP180;9970;-36.854;174.870;2022-07-06T10:05:46;102069.00;;;13.60
19644;BMP180;9970;-36.854;174.870;2022-07-06T10:08:21;102078.00;;;13.60
19644;BMP180;9970;-36.854;174.870;2022-07-06T10:10:55;102071.00;;;13.60
19644;BMP180;9970;-36.854;174.870;2022-07-06T10:13:28;102069.00;;;13.60
19644;BMP180;9970;-36.854;174.870;2022-07-06T10:16:02;102076.00;;;13.60
19644;BMP180;9970;-36.854;174.870;2022-07-06T10:18:35;102071.00;;;13.70
19644;BMP180;9970;-36.854;174.870;2022-07-06T10:21:09;102067.00;;;13.60
19644;BMP180;9970;-36.854;174.870;2022-07-06T10:23:43;102065.00;;;13.70
19644;BMP180;9970;-36.854;174.870;2022-07-06T10:26:17;102063.00;;;13.70
19644;BMP180;9970;-36.854;174.870;2022-07-06T10:28:51;102063.00;;;13.70
19644;BMP180;9970;-36.854;174.870;2022-07-06T10:31:25;102058.00;;;13.70
19644;BMP180;9970;-36.854;174.870;2022-07-06T10:34:01;102052.00;;;13.70
19644;BMP180;9970;-36.854;174.870;2022-07-06T10:36:39;102054.00;;;13.70
19644;BMP180;9970;-36.854;174.870;2022-07-06T10:39:12;102042.00;;;13.70
19644;BMP180;9970;-36.854;174.870;2022-07-06T10:42:02;102039.00;;;13.70
19644;BMP180;9970;-36.854;174.870;2022-07-06T10:44:36;102041.00;;;13.80
19644;BMP180;9970;-36.854;174.870;2022-07-06T10:47:13;102036.00;;;13.80
19644;BMP180;9970;-36.854;174.870;2022-07-06T10:49:49;102042.00;;;13.80
19644;BMP180;9970;-36.854;174.870;2022-07-06T10:52:24;102043.00;;;13.80
19644;BMP180;9970;-36.854;174.870;2022-07-06T10:54:58;102046.00;;;13.80
19644;BMP180;9970;-36.854;174.870;2022-07-06T10:57:31;102045.00;;;13.80
19644;BMP180;9970;-36.854;174.870;2022-07-06T11:00:06;102038.00;;;13.80
19644;BMP180;9970;-36.854;174.870;2022-07-06T11:02:40;102041.00;;;13.80
19644;BMP180;9970;-36.854;174.870;2022-07-06T11:05:39;102048.00;;;13.80
19644;BMP180;9970;-36.854;174.870;2022-07-06T11:07:53;102031.00;;;13.90
19644;BMP180;9970;-36.854;174.870;2022-07-06T11:10:27;102041.00;;;13.90
19644;BMP180;9970;-36.854;174.870;2022-07-06T11:13:03;102038.00;;;13.90
19644;BMP180;9970;-36.854;174.870;2022-07-06T11:15:48;102039.00;;;13.90
19644;BMP180;9970;-36.854;174.870;2022-07-06T11:18:21;102045.00;;;13.90
19644;BMP180;9970;-36.854;174.870;2022-07-06T11:21:22;102052.00;;;13.90
19644;BMP180;9970;-36.854;174.870;2022-07-06T11:23:55;102048.00;;;13.90
19644;BMP180;9970;-36.854;174.870;2022-07-06T11:26:28;102051.00;;;13.90
19644;BMP180;9970;-36.854;174.870;2022-07-06T11:29:05;102040.00;;;13.90
19644;BMP180;9970;-36.854;174.870;2022-07-06T11:31:39;102034.00;;;13.90
19644;BMP180;9970;-36.854;174.870;2022-07-06T11:34:14;102032.00;;;13.90
19644;BMP180;9970;-36.854;174.870;2022-07-06T11:36:47;102020.00;;;13.90
19644;BMP180;9970;-36.854;174.870;2022-07-06T11:39:20;102027.00;;;13.90
19644;BMP180;9970;-36.854;174.870;2022-07-06T11:41:54;102024.00;;;13.90
19644;BMP180;9970;-36.854;174.870;2022-07-06T11:44:27;102022.00;;;13.90
19644;BMP180;9970;-36.854;174.870;2022-07-06T11:46:59;102014.00;;;13.90
19644;BMP180;9970;-36.854;174.870;2022-07-06T11:49:34;102004.00;;;13.90
19644;BMP180;9970;-36.854;174.870;2022-07-06T11:52:12;101991.00;;;13.90
19644;BMP180;9970;-36.854;174.870;2022-07-06T11:54:45;101993.00;;;13.90
19644;BMP180;9970;-36.854;174.870;2022-07-06T11:57:18;101991.00;;;13.90
19644;BMP180;9970;-36.854;174.870;2022-07-06T11:59:50;101991.00;;;14.00
19644;BMP180;9970;-36.854;174.870;2022-07-06T12:02:23;101979.00;;;14.00
19644;BMP180;9970;-36.854;174.870;2022-07-06T12:04:56;101978.00;;;14.00
19644;BMP180;9970;-36.854;174.870;2022-07-06T12:07:29;101987.00;;;14.00
19644;BMP180;9970;-36.854;174.870;2022-07-06T12:10:02;101986.00;;;14.00
19644;BMP180;9970;-36.854;174.870;2022-07-06T12:12:35;101999.00;;;14.00
19644;BMP180;9970;-36.854;174.870;2022-07-06T12:15:09;101992.00;;;14.00
19644;BMP180;9970;-36.854;174.870;2022-07-06T12:17:46;101990.00;;;14.00
19644;BMP180;9970;-36.854;174.870;2022-07-06T12:20:16;101998.00;;;14.00
19644;BMP180;9970;-36.854;174.870;2022-07-06T12:22:50;102002.00;;;14.00
19644;BMP180;9970;-36.854;174.870;2022-07-06T12:25:34;101985.00;;;14.00
19644;BMP180;9970;-36.854;174.870;2022-07-06T12:28:07;101985.00;;;14.00
19644;BMP180;9970;-36.854;174.870;2022-07-06T12:30:49;101985.00;;;14.00
19644;BMP180;9970;-36.854;174.870;2022-07-06T12:33:22;101997.00;;;14.00
19644;BMP180;9970;-36.854;174.870;2022-07-06T12:35:55;102000.00;;;14.00
19644;BMP180;9970;-36.854;174.870;2022-07-06T12:38:28;101990.00;;;14.00
19644;BMP180;9970;-36.854;174.870;2022-07-06T12:41:01;102000.00;;;14.10
19644;BMP180;9970;-36.854;174.870;2022-07-06T12:43:43;102005.00;;;14.10
19644;BMP180;9970;-36.854;174.870;2022-07-06T12:46:46;101997.00;;;14.10
19644;BMP180;9970;-36.854;174.870;2022-07-06T12:49:20;101996.00;;;14.10
19644;BMP180;9970;-36.854;174.870;2022-07-06T12:52:02;101995.00;;;14.10
19644;BMP180;9970;-36.854;174.870;2022-07-06T12:54:39;101992.00;;;14.10
19644;BMP180;9970;-36.854;174.870;2022-07-06T12:57:15;101978.00;;;14.00
19644;BMP180;9970;-36.854;174.870;2022-07-06T12:59:47;101976.00;;;14.00
19644;BMP180;9970;-36.854;174.870;2022-07-06T13:05:03;101979.00;;;14.10
19644;BMP180;9970;-36.854;174.870;2022-07-06T13:07:33;101977.00;;;14.10
19644;BMP180;9970;-36.854;174.870;2022-07-06T13:10:08;101971.00;;;14.00
19644;BMP180;9970;-36.854;174.870;2022-07-06T13:12:41;101972.00;;;14.10
19644;BMP180;9970;-36.854;174.870;2022-07-06T13:15:14;101965.00;;;14.10
19644;BMP180;9970;-36.854;174.870;2022-07-06T13:17:47;101965.00;;;14.10
19644;BMP180;9970;-36.854;174.870;2022-07-06T13:20:20;101959.00;;;14.10
19644;BMP180;9970;-36.854;174.870;2022-07-06T13:22:53;101959.00;;;14.10
19644;BMP180;9970;-36.854;174.870;2022-07-06T13:25:26;101965.00;;;14.10
19644;BMP180;9970;-36.854;174.870;2022-07-06T13:28:03;101974.00;;;14.20
19644;BMP180;9970;-36.854;174.870;2022-07-06T13:30:36;101974.00;;;14.10
19644;BMP180;9970;-36.854;174.870;2022-07-06T13:33:09;101957.00;;;14.10
19644;BMP180;9970;-36.854;174.870;2022-07-06T13:35:42;101966.00;;;14.20
19644;BMP180;9970;-36.854;174.870;2022-07-06T13:38:15;101965.00;;;14.10
19644;BMP180;9970;-36.854;174.870;2022-07-06T13:40:48;101972.00;;;14.10
19644;BMP180;9970;-36.854;174.870;2022-07-06T13:43:21;101962.00;;;14.10
19644;BMP180;9970;-36.854;174.870;2022-07-06T13:45:54;101957.00;;;14.20
19644;BMP180;9970;-36.854;174.870;2022-07-06T13:48:27;101964.00;;;14.20
19644;BMP180;9970;-36.854;174.870;2022-07-06T13:51:00;101959.00;;;14.20
19644;BMP180;9970;-36.854;174.870;2022-07-06T13:53:34;101952.00;;;14.20
19644;BMP180;9970;-36.854;174.870;2022-07-06T13:56:06;101960.00;;;14.20
19644;BMP180;9970;-36.854;174.870;2022-07-06T13:58:40;101960.00;;;14.20
19644;BMP180;9970;-36.854;174.870;2022-07-06T14:01:13;101973.00;;;14.20
19644;BMP180;9970;-36.854;174.870;2022-07-06T14:03:47;101968.00;;;14.20
19644;BMP180;9970;-36.854;174.870;2022-07-06T14:06:20;101967.00;;;14.20
19644;BMP180;9970;-36.854;174.870;2022-07-06T14:08:53;101967.00;;;14.20
19644;BMP180;9970;-36.854;174.870;2022-07-06T14:11:26;101976.00;;;14.20